Time;durP1;ratioP1;P1;durP2;ratioP2;P2;SDS_P1;SDS_P2;PMS_P1;PMS_P2;Temp;Humidity;BMP_temperature;BMP_pressure;BME280_temperature;BME280_humidity;BME280_pressure;Samples;Min_cycle;Max_cycle;Signal;HPM_P1;HPM_P2
2024/01/14 05:31:03;;;;;;;0.20;0.20;;;1.70;82.10;;;;;;5663437;23;20472;-85
2024/01/14 05:33:29;;;;;;;0.20;0.20;;;1.60;82.00;;;;;;5003428;28;20054;-85
2024/01/14 05:35:54;;;;;;;0.10;0.10;;;1.60;82.20;;;;;;5006334;28;20108;-84
2024/01/14 05:38:20;;;;;;;0.10;0.10;;;1.60;82.00;;;;;;5003587;28;20569;-84
2024/01/14 05:40:45;;;;;;;0.20;0.20;;;1.60;82.30;;;;;;5005539;28;20397;-84
2024/01/14 05:43:11;;;;;;;0.10;0.10;;;1.60;82.30;;;;;;5015208;28;20033;-85
2024/01/14 05:45:37;;;;;;;0.20;0.20;;;1.70;82.10;;;;;;5010759;28;20034;-84
2024/01/14 05:48:03;;;;;;;0.10;0.10;;;1.70;82.10;;;;;;4996222;28;20779;-84
2024/01/14 05:50:28;;;;;;;0.20;0.20;;;1.70;82.00;;;;;;4994465;28;20110;-85
2024/01/14 05:52:54;;;;;;;0.10;0.10;;;1.70;82.10;;;;;;5006715;28;20025;-84
2024/01/14 05:55:19;;;;;;;0.10;0.10;;;1.70;82.10;;;;;;5009359;28;20434;-85
2024/01/14 05:57:46;;;;;;;0.10;0.10;;;1.60;82.00;;;;;;5014432;28;20030;-84
2024/01/14 06:00:13;;;;;;;0.20;0.20;;;1.60;82.30;;;;;;5008407;28;20027;-84
2024/01/14 06:02:39;;;;;;;0.20;0.20;;;1.70;82.20;;;;;;5012923;28;20034;-84
2024/01/14 06:05:04;;;;;;;0.20;0.20;;;1.70;82.20;;;;;;5014438;28;20036;-84
2024/01/14 06:07:30;;;;;;;0.20;0.20;;;1.70;82.20;;;;;;5001051;28;20026;-84
2024/01/14 06:09:56;;;;;;;0.10;0.10;;;1.70;82.30;;;;;;4995992;28;20510;-84
2024/01/14 06:12:21;;;;;;;0.10;0.10;;;1.70;82.30;;;;;;4995780;28;20023;-84
2024/01/14 06:14:47;;;;;;;0.10;0.10;;;1.70;82.20;;;;;;4995580;28;20081;-84
2024/01/14 06:17:13;;;;;;;0.20;0.20;;;1.70;82.10;;;;;;4995956;28;20442;-85
2024/01/14 06:19:40;;;;;;;0.20;0.20;;;1.70;82.30;;;;;;4994059;28;20045;-84
2024/01/14 06:22:06;;;;;;;0.10;0.10;;;1.70;82.10;;;;;;5010929;28;20026;-84
2024/01/14 06:24:31;;;;;;;0.20;0.20;;;1.70;82.10;;;;;;4995594;28;20026;-84
2024/01/14 06:26:57;;;;;;;0.10;0.10;;;1.70;82.20;;;;;;5010545;28;20030;-85
2024/01/14 06:29:23;;;;;;;0.20;0.20;;;1.70;81.90;;;;;;5010643;28;20605;-85
2024/01/14 06:31:49;;;;;;;0.20;0.20;;;1.70;82.10;;;;;;4995676;28;20039;-84
2024/01/14 06:34:14;;;;;;;0.10;0.10;;;1.60;82.20;;;;;;4995521;28;20026;-84
2024/01/14 06:36:40;;;;;;;0.20;0.20;;;1.60;82.70;;;;;;4997337;28;20038;-85
2024/01/14 06:39:05;;;;;;;0.20;0.20;;;1.60;82.60;;;;;;5010773;28;20065;-84
2024/01/14 06:41:31;;;;;;;0.20;0.20;;;1.60;82.80;;;;;;5009465;28;20034;-84
2024/01/14 06:43:57;;;;;;;0.15;0.15;;;1.60;82.90;;;;;;4995308;28;20035;-85
2024/01/14 06:46:22;;;;;;;0.10;0.10;;;1.50;82.90;;;;;;4995061;28;20085;-85
2024/01/14 06:48:48;;;;;;;0.20;0.20;;;1.60;83.00;;;;;;4995305;28;20027;-85
2024/01/14 06:51:14;;;;;;;0.20;0.20;;;1.60;82.90;;;;;;4994938;28;20030;-85
2024/01/14 06:53:40;;;;;;;0.10;0.10;;;1.60;82.90;;;;;;4995336;28;20064;-85
2024/01/14 06:56:07;;;;;;;0.10;0.10;;;1.70;82.90;;;;;;5002168;28;20054;-84
2024/01/14 06:58:33;;;;;;;0.10;0.10;;;1.70;82.80;;;;;;4994133;28;20516;-84
2024/01/14 07:00:59;;;;;;;0.20;0.20;;;1.70;82.80;;;;;;5004813;28;20528;-85
2024/01/14 07:03:24;;;;;;;0.10;0.10;;;1.70;82.60;;;;;;5012886;28;20108;-84
2024/01/14 07:05:50;;;;;;;0.10;0.10;;;1.70;82.40;;;;;;5014562;28;20033;-84
2024/01/14 07:08:16;;;;;;;0.10;0.10;;;1.70;82.70;;;;;;5004081;28;20089;-84
2024/01/14 07:10:41;;;;;;;0.20;0.20;;;1.70;82.70;;;;;;4993594;28;20023;-84
2024/01/14 07:13:08;;;;;;;0.20;0.20;;;1.70;82.70;;;;;;4994998;28;20026;-84
2024/01/14 07:15:36;;;;;;;0.20;0.20;;;1.70;82.90;;;;;;4989713;28;20030;-84
2024/01/14 07:18:07;;;;;;;0.15;0.15;;;1.70;83.10;;;;;;4995457;28;20037;-84
2024/01/14 07:20:32;;;;;;;0.10;0.10;;;1.60;83.10;;;;;;5012393;28;20137;-84
2024/01/14 07:22:58;;;;;;;0.10;0.10;;;1.70;82.90;;;;;;5003193;28;20022;-84
2024/01/14 07:25:24;;;;;;;0.20;0.20;;;1.80;82.80;;;;;;5004275;28;20601;-84
2024/01/14 07:27:50;;;;;;;0.20;0.20;;;1.80;82.80;;;;;;5014704;28;20061;-86
2024/01/14 07:30:18;;;;;;;0.20;0.20;;;1.80;82.50;;;;;;5019960;28;20029;-83
2024/01/14 07:32:45;;;;;;;0.20;0.20;;;1.90;82.40;;;;;;5019536;28;20117;-85
2024/01/14 07:35:11;;;;;;;0.10;0.10;;;1.90;82.40;;;;;;5019043;28;20026;-85
2024/01/14 07:37:37;;;;;;;0.10;0.10;;;1.80;82.30;;;;;;5002720;28;20041;-80
2024/01/14 07:40:03;;;;;;;0.20;0.20;;;1.80;82.20;;;;;;5003279;28;20052;-81
2024/01/14 07:42:28;;;;;;;0.10;0.10;;;1.90;82.20;;;;;;5018614;28;20026;-82
2024/01/14 07:44:54;;;;;;;0.10;0.10;;;1.90;82.00;;;;;;5018199;28;20037;-80
2024/01/14 07:47:21;;;;;;;0.10;0.10;;;2.00;82.00;;;;;;5005074;28;20453;-80
2024/01/14 07:49:48;;;;;;;0.10;0.10;;;2.00;82.00;;;;;;5002114;28;20023;-80
2024/01/14 07:52:17;;;;;;;0.10;0.10;;;2.00;81.90;;;;;;4999291;28;20094;-79
2024/01/14 07:54:43;;;;;;;0.15;0.15;;;2.10;81.90;;;;;;4999302;28;20026;-78
2024/01/14 07:57:10;;;;;;;0.15;0.15;;;2.00;81.60;;;;;;5012467;28;20093;-79
2024/01/14 07:59:35;;;;;;;0.20;0.20;;;2.10;81.70;;;;;;5014852;28;20050;-79
2024/01/14 08:02:02;;;;;;;0.10;0.10;;;2.00;81.30;;;;;;5018610;28;20041;-79
2024/01/14 08:04:27;;;;;;;0.10;0.10;;;1.90;81.80;;;;;;5015644;28;20032;-78
2024/01/14 08:06:53;;;;;;;0.20;0.20;;;2.00;82.00;;;;;;5004047;28;20058;-79
2024/01/14 08:09:20;;;;;;;0.20;0.20;;;2.10;81.90;;;;;;5006332;28;20027;-78
2024/01/14 08:11:45;;;;;;;0.10;0.10;;;2.00;81.80;;;;;;4999123;28;20030;-78
2024/01/14 08:14:11;;;;;;;0.20;0.20;;;2.10;81.90;;;;;;4997705;28;20022;-79
2024/01/14 08:16:36;;;;;;;0.20;0.20;;;2.10;81.80;;;;;;5007189;28;20085;-77
2024/01/14 08:19:03;;;;;;;0.17;0.17;;;2.10;81.70;;;;;;4999688;28;20062;-77
2024/01/14 08:21:28;;;;;;;0.20;0.20;;;2.20;81.80;;;;;;5002249;28;20508;-77
2024/01/14 08:23:54;;;;;;;0.20;0.20;;;2.20;81.70;;;;;;5007133;28;20029;-78
2024/01/14 08:26:20;;;;;;;0.10;0.10;;;2.20;81.70;;;;;;5010275;28;20045;-78
2024/01/14 08:28:45;;;;;;;0.13;0.13;;;2.20;81.30;;;;;;4997094;28;20029;-78
2024/01/14 08:31:11;;;;;;;0.10;0.10;;;2.30;81.40;;;;;;5007493;28;20130;-78
2024/01/14 08:33:37;;;;;;;0.20;0.20;;;2.30;81.30;;;;;;5014531;28;20026;-78
2024/01/14 08:36:03;;;;;;;0.10;0.10;;;2.30;81.30;;;;;;5016033;28;20037;-79
2024/01/14 08:38:28;;;;;;;0.10;0.10;;;2.30;81.10;;;;;;4998689;28;20030;-79
2024/01/14 08:40:54;;;;;;;0.20;0.20;;;2.40;81.20;;;;;;5008635;28;20045;-78
2024/01/14 08:43:20;;;;;;;0.10;0.10;;;2.40;81.10;;;;;;5017246;28;20809;-79
2024/01/14 08:45:45;;;;;;;0.10;0.10;;;2.40;81.10;;;;;;5015954;28;20036;-79
2024/01/14 08:48:11;;;;;;;0.10;0.10;;;2.40;81.00;;;;;;5017262;28;20133;-80
2024/01/14 08:50:37;;;;;;;0.20;0.20;;;2.40;81.00;;;;;;5015769;28;20022;-77
2024/01/14 08:53:03;;;;;;;0.20;0.20;;;2.40;81.00;;;;;;5017172;28;20018;-78
2024/01/14 08:55:29;;;;;;;0.10;0.10;;;2.40;81.00;;;;;;5016178;28;20045;-78
2024/01/14 08:57:55;;;;;;;0.10;0.10;;;2.30;81.10;;;;;;5018039;28;20034;-78
2024/01/14 09:00:21;;;;;;;0.20;0.20;;;2.40;81.20;;;;;;5014635;28;20033;-78
2024/01/14 09:02:47;;;;;;;0.10;0.10;;;2.40;81.20;;;;;;5015874;28;20081;-78
2024/01/14 09:05:13;;;;;;;0.20;0.20;;;2.30;81.00;;;;;;5017019;28;20033;-76
2024/01/14 09:07:39;;;;;;;0.10;0.10;;;2.40;81.10;;;;;;5015760;28;20019;-80
2024/01/14 09:10:05;;;;;;;0.10;0.10;;;2.40;81.10;;;;;;5014581;28;20084;-83
2024/01/14 09:12:30;;;;;;;0.10;0.10;;;2.50;81.00;;;;;;5005543;28;20033;-82
2024/01/14 09:14:56;;;;;;;0.20;0.20;;;2.50;81.00;;;;;;4997460;28;20022;-86
2024/01/14 09:17:22;;;;;;;0.20;0.20;;;2.50;80.70;;;;;;4996238;28;20061;-82
2024/01/14 09:19:47;;;;;;;0.20;0.20;;;2.40;80.90;;;;;;5013290;28;20485;-88
2024/01/14 09:22:13;;;;;;;0.20;0.20;;;2.50;80.80;;;;;;5008421;28;20675;-88
2024/01/14 09:24:43;;;;;;;0.13;0.13;;;2.50;80.80;;;;;;5009975;28;20030;-79
2024/01/14 09:27:09;;;;;;;0.20;0.20;;;2.50;81.10;;;;;;5008940;28;20037;-83
2024/01/14 09:29:35;;;;;;;0.20;0.20;;;2.50;80.90;;;;;;5004977;28;20027;-83
2024/01/14 09:32:00;;;;;;;0.20;0.20;;;2.60;80.70;;;;;;4996917;28;20046;-79
2024/01/14 09:34:26;;;;;;;0.20;0.20;;;2.60;80.90;;;;;;4993024;28;20025;-83
2024/01/14 09:36:51;;;;;;;0.20;0.20;;;2.70;80.70;;;;;;5005383;28;20030;-81
2024/01/14 09:39:17;;;;;;;0.20;0.20;;;2.80;80.40;;;;;;5013523;28;20040;-79
2024/01/14 09:42:02;;;;;;;0.10;0.10;;;2.70;80.40;;;;;;5015896;28;20081;-78
2024/01/14 09:44:27;;;;;;;0.17;0.17;;;2.70;80.80;;;;;;5007696;28;20489;-81
2024/01/14 09:46:54;;;;;;;0.20;0.20;;;2.70;80.70;;;;;;4992508;28;20065;-80
2024/01/14 09:49:22;;;;;;;0.10;0.10;;;2.80;80.60;;;;;;4997823;28;20034;-80
2024/01/14 09:51:49;;;;;;;0.10;0.10;;;2.90;80.30;;;;;;5012256;28;20032;-82
2024/01/14 09:54:15;;;;;;;0.20;0.20;;;3.00;80.10;;;;;;5010597;28;20026;-80
2024/01/14 09:56:42;;;;;;;0.20;0.20;;;3.20;79.70;;;;;;5002465;28;20034;-79
2024/01/14 09:59:08;;;;;;;0.20;0.20;;;3.20;79.40;;;;;;5005656;28;20037;-80
2024/01/14 10:01:34;;;;;;;0.20;0.20;;;3.20;78.90;;;;;;5016154;28;20030;-80
2024/01/14 10:04:01;;;;;;;0.20;0.20;;;3.10;79.30;;;;;;5009426;28;20026;-79
2024/01/14 10:06:28;;;;;;;0.20;0.20;;;3.10;79.80;;;;;;5006818;28;20025;-79
2024/01/14 10:08:54;;;;;;;0.10;0.10;;;3.20;79.50;;;;;;5003111;28;20050;-79
2024/01/14 10:11:20;;;;;;;0.20;0.20;;;3.40;79.50;;;;;;5010681;28;20018;-80
2024/01/14 10:13:47;;;;;;;0.10;0.10;;;3.40;79.10;;;;;;4986404;28;20044;-80
2024/01/14 10:16:13;;;;;;;0.10;0.10;;;3.40;78.70;;;;;;4995627;28;20496;-80
2024/01/14 10:18:39;;;;;;;0.20;0.20;;;3.30;78.50;;;;;;5007076;28;20034;-79
2024/01/14 10:21:05;;;;;;;0.10;0.10;;;3.40;79.10;;;;;;5011882;28;20109;-79
2024/01/14 10:23:33;;;;;;;0.10;0.10;;;3.40;79.30;;;;;;5009790;28;20511;-79
2024/01/14 10:26:02;;;;;;;0.20;0.20;;;3.30;79.40;;;;;;5006736;28;20026;-78
2024/01/14 10:28:35;;;;;;;0.20;0.20;;;3.40;79.50;;;;;;5011196;28;20033;-79
2024/01/14 10:31:08;;;;;;;0.20;0.20;;;3.40;79.30;;;;;;5011978;28;20078;-79
2024/01/14 10:33:35;;;;;;;0.20;0.20;;;3.40;79.50;;;;;;5011493;28;20068;-79
2024/01/14 10:36:06;;;;;;;0.20;0.20;;;3.40;79.50;;;;;;5012189;28;20073;-79
2024/01/14 10:38:32;;;;;;;0.13;0.13;;;3.50;79.70;;;;;;4998025;28;20026;-80
2024/01/14 10:40:58;;;;;;;0.10;0.10;;;3.50;79.70;;;;;;5008148;28;20391;-81
2024/01/14 10:43:26;;;;;;;0.10;0.10;;;3.50;79.50;;;;;;5009747;28;20037;-83
2024/01/14 10:45:52;;;;;;;0.10;0.10;;;3.50;79.20;;;;;;5010270;28;20025;-81
2024/01/14 10:48:25;;;;;;;0.10;0.10;;;3.50;79.50;;;;;;5011488;28;20030;-78
2024/01/14 10:50:57;;;;;;;0.20;0.20;;;3.50;79.30;;;;;;5014046;28;20021;-81
2024/01/14 10:53:33;;;;;;;0.20;0.20;;;3.50;79.30;;;;;;5005849;28;20116;-82
2024/01/14 10:56:01;;;;;;;0.10;0.10;;;3.50;79.40;;;;;;5009115;28;20485;-82
2024/01/14 10:58:29;;;;;;;0.20;0.20;;;3.50;79.30;;;;;;5010868;28;20092;-83
2024/01/14 11:01:04;;;;;;;0.15;0.15;;;3.50;79.10;;;;;;5011095;28;20088;-81
2024/01/14 11:03:33;;;;;;;0.20;0.20;;;3.50;79.40;;;;;;5010707;28;20026;-84
2024/01/14 11:05:59;;;;;;;0.20;0.20;;;3.60;79.50;;;;;;5007810;28;20053;-82
2024/01/14 11:08:25;;;;;;;0.10;0.10;;;3.70;79.30;;;;;;5009317;28;20029;-83
2024/01/14 11:10:53;;;;;;;0.10;0.10;;;3.70;79.30;;;;;;5005639;28;20065;-80
2024/01/14 11:13:58;;;;;;;0.10;0.10;;;3.70;79.30;;;;;;5004233;28;20029;-82
2024/01/14 11:16:42;;;;;;;0.20;0.20;;;3.60;79.30;;;;;;4982115;28;20040;-80
2024/01/14 11:19:13;;;;;;;0.10;0.10;;;3.70;79.00;;;;;;5007095;28;20069;-78
2024/01/14 11:21:54;;;;;;;0.17;0.17;;;3.70;79.10;;;;;;5006103;28;20036;-78
2024/01/14 11:24:21;;;;;;;0.20;0.20;;;3.70;79.00;;;;;;5010871;28;20014;-76
2024/01/14 11:26:47;;;;;;;0.20;0.20;;;3.80;79.00;;;;;;5009747;28;20073;-77
2024/01/14 11:29:13;;;;;;;0.10;0.10;;;3.70;78.70;;;;;;5012802;28;20044;-78
2024/01/14 11:32:10;;;;;;;0.20;0.20;;;3.80;78.60;;;;;;5021795;28;20452;-82
2024/01/14 11:34:47;;;;;;;0.20;0.20;;;3.90;77.50;;;;;;5008217;28;20026;-78
2024/01/14 11:37:36;;;;;;;0.20;0.20;;;4.00;78.10;;;;;;5009640;28;20038;-78
2024/01/14 11:40:12;;;;;;;0.10;0.10;;;4.20;77.90;;;;;;5005051;28;20468;-76
2024/01/14 11:42:50;;;;;;;0.10;0.10;;;4.20;77.00;;;;;;5011497;28;20037;-78
2024/01/14 11:45:32;;;;;;;0.20;0.20;;;4.30;77.10;;;;;;5004868;28;20033;-77
2024/01/14 11:47:58;;;;;;;0.10;0.10;;;4.40;77.10;;;;;;5004174;28;20030;-78
2024/01/14 11:50:27;;;;;;;0.15;0.15;;;4.50;76.50;;;;;;5008538;28;20030;-76
2024/01/14 11:52:54;;;;;;;0.10;0.10;;;4.50;76.40;;;;;;5007911;28;20069;-77
2024/01/14 11:55:29;;;;;;;0.10;0.10;;;4.50;76.50;;;;;;5008236;28;20022;-77
2024/01/14 11:57:55;;;;;;;0.20;0.20;;;4.60;76.50;;;;;;5006232;28;20086;-78
2024/01/14 12:00:26;;;;;;;0.10;0.10;;;4.60;76.30;;;;;;4991724;28;20027;-79
2024/01/14 12:03:09;;;;;;;0.20;0.20;;;4.50;76.90;;;;;;5007210;28;20033;-81
2024/01/14 12:05:35;;;;;;;0.10;0.10;;;4.40;76.60;;;;;;5000239;28;20026;-80
2024/01/14 12:08:01;;;;;;;0.10;0.10;;;4.40;76.50;;;;;;5011090;28;20089;-80
2024/01/14 12:10:32;;;;;;;0.10;0.10;;;4.30;77.20;;;;;;5011657;28;20038;-84
2024/01/14 12:13:02;;;;;;;0.13;0.13;;;4.40;77.50;;;;;;5009467;28;20412;-78
2024/01/14 12:15:28;;;;;;;0.13;0.13;;;4.40;76.80;;;;;;5015451;28;20565;-82
2024/01/14 12:17:56;;;;;;;0.10;0.10;;;4.50;76.90;;;;;;4998567;28;20033;-79
2024/01/14 12:20:23;;;;;;;0.10;0.10;;;4.60;76.60;;;;;;5007928;28;20056;-81
2024/01/14 12:22:55;;;;;;;0.20;0.20;;;4.50;76.30;;;;;;4997695;28;20121;-79
2024/01/14 12:25:21;;;;;;;0.20;0.20;;;4.50;76.70;;;;;;4995895;28;20044;-80
2024/01/14 12:27:46;;;;;;;0.20;0.20;;;4.60;76.60;;;;;;4995666;28;20026;-79
2024/01/14 12:30:21;;;;;;;0.20;0.20;;;4.60;76.00;;;;;;5010402;28;20117;-79
2024/01/14 12:32:48;;;;;;;0.10;0.10;;;4.70;76.30;;;;;;5000593;28;20502;-80
2024/01/14 12:35:14;;;;;;;0.10;0.10;;;4.70;75.80;;;;;;4997235;28;20654;-80
2024/01/14 12:37:40;;;;;;;0.20;0.20;;;4.80;75.80;;;;;;4998026;28;20040;-81
2024/01/14 12:40:06;;;;;;;0.20;0.20;;;4.80;75.70;;;;;;4998354;28;20508;-81
2024/01/14 12:42:32;;;;;;;0.10;0.10;;;4.80;75.60;;;;;;5017820;28;20053;-78
2024/01/14 12:45:00;;;;;;;0.10;0.10;;;4.90;75.10;;;;;;5009958;28;20038;-82
2024/01/14 12:47:25;;;;;;;0.10;0.10;;;5.00;74.90;;;;;;4995497;28;20026;-82
2024/01/14 12:49:54;;;;;;;0.10;0.10;;;5.10;75.10;;;;;;4995666;28;20461;-79
2024/01/14 12:52:20;;;;;;;0.10;0.10;;;5.20;75.10;;;;;;5004759;28;20367;-80
2024/01/14 12:54:50;;;;;;;0.10;0.10;;;5.30;74.90;;;;;;5008178;28;20040;-81
2024/01/14 12:57:15;;;;;;;0.10;0.10;;;5.40;74.60;;;;;;5012250;28;20108;-80
2024/01/14 12:59:41;;;;;;;0.10;0.10;;;5.60;74.10;;;;;;5006381;28;20061;-81
2024/01/14 13:02:07;;;;;;;0.20;0.20;;;5.50;74.00;;;;;;5013268;28;20477;-80
2024/01/14 13:04:32;;;;;;;0.10;0.10;;;5.50;73.50;;;;;;5007644;28;20041;-80
2024/01/14 13:06:58;;;;;;;0.10;0.10;;;5.50;74.00;;;;;;5008026;28;20034;-86
2024/01/14 13:09:24;;;;;;;0.10;0.10;;;5.50;74.20;;;;;;5001738;28;20462;-81
2024/01/14 13:11:50;;;;;;;0.10;0.10;;;5.60;74.20;;;;;;5004682;28;20568;-84
2024/01/14 13:14:16;;;;;;;0.10;0.10;;;5.60;73.90;;;;;;5007939;28;20068;-79
2024/01/14 13:16:41;;;;;;;0.10;0.10;;;5.60;73.70;;;;;;5006797;28;20030;-80
2024/01/14 13:19:07;;;;;;;0.10;0.10;;;5.60;74.10;;;;;;5004550;28;20030;-83
2024/01/14 13:21:33;;;;;;;0.20;0.20;;;5.60;74.20;;;;;;5009365;28;20025;-81
2024/01/14 13:23:59;;;;;;;0.10;0.10;;;5.70;73.90;;;;;;5006727;28;20022;-83
2024/01/14 13:26:26;;;;;;;0.10;0.10;;;5.70;73.60;;;;;;5010791;28;20041;-80
2024/01/14 13:28:57;;;;;;;0.10;0.10;;;5.70;73.60;;;;;;5015892;28;20441;-80
2024/01/14 13:31:22;;;;;;;0.10;0.10;;;5.70;73.80;;;;;;5008883;28;20046;-81
2024/01/14 13:33:48;;;;;;;0.10;0.10;;;5.70;74.20;;;;;;5010346;28;20029;-80
2024/01/14 13:36:14;;;;;;;0.10;0.10;;;5.70;74.40;;;;;;5013747;28;20029;-80
2024/01/14 13:38:41;;;;;;;0.10;0.10;;;5.70;74.50;;;;;;4999886;28;20095;-79
2024/01/14 13:41:07;;;;;;;0.13;0.13;;;5.70;75.30;;;;;;5001932;28;20030;-79
2024/01/14 13:43:32;;;;;;;0.13;0.13;;;5.60;74.30;;;;;;4996883;28;20041;-80
2024/01/14 13:45:58;;;;;;;0.10;0.10;;;5.70;75.10;;;;;;5012340;28;20037;-81
2024/01/14 13:48:24;;;;;;;0.15;0.15;;;5.60;74.30;;;;;;5010730;28;20030;-81
2024/01/14 13:50:50;;;;;;;0.10;0.10;;;5.60;75.20;;;;;;5013145;28;20034;-81
2024/01/14 13:53:17;;;;;;;0.10;0.10;;;5.70;74.80;;;;;;4961150;28;20389;-81
2024/01/14 13:55:43;;;;;;;0.10;0.10;;;5.60;74.30;;;;;;4990123;28;20052;-81
2024/01/14 13:58:08;;;;;;;0.10;0.10;;;5.70;74.70;;;;;;5012013;28;20488;-81
2024/01/14 14:00:34;;;;;;;0.10;0.10;;;5.70;74.20;;;;;;5003851;28;20426;-83
2024/01/14 14:03:00;;;;;;;0.10;0.10;;;5.70;74.20;;;;;;5006543;28;20488;-81
2024/01/14 14:05:26;;;;;;;0.10;0.10;;;5.70;74.70;;;;;;5003947;28;20022;-81
2024/01/14 14:07:51;;;;;;;0.10;0.10;;;5.70;74.40;;;;;;4990102;28;20093;-81
2024/01/14 14:10:17;;;;;;;0.10;0.10;;;5.70;74.30;;;;;;5002663;28;20034;-81
2024/01/14 14:12:43;;;;;;;0.10;0.10;;;5.80;74.20;;;;;;5012875;28;20022;-79
2024/01/14 14:15:09;;;;;;;0.10;0.10;;;5.80;73.90;;;;;;5010835;28;20026;-81
2024/01/14 14:17:35;;;;;;;0.10;0.10;;;5.80;73.70;;;;;;5007897;28;20038;-85
2024/01/14 14:20:00;;;;;;;0.10;0.10;;;5.90;73.50;;;;;;5013414;28;20405;-80
2024/01/14 14:22:26;;;;;;;0.10;0.10;;;6.00;73.90;;;;;;5011350;28;20095;-80
2024/01/14 14:24:52;;;;;;;0.20;0.20;;;6.20;73.70;;;;;;5012875;28;20037;-80
2024/01/14 14:27:17;;;;;;;0.10;0.10;;;6.30;73.40;;;;;;5013417;28;20029;-81
2024/01/14 14:29:43;;;;;;;0.10;0.10;;;6.30;72.60;;;;;;5007207;28;20088;-82
2024/01/14 14:32:09;;;;;;;0.10;0.10;;;6.40;72.40;;;;;;5001895;28;20054;-82
2024/01/14 14:34:35;;;;;;;0.20;0.20;;;6.20;72.60;;;;;;4984865;28;20034;-82
2024/01/14 14:37:01;;;;;;;0.10;0.10;;;6.20;72.60;;;;;;5009330;28;20033;-82
2024/01/14 14:39:27;;;;;;;0.10;0.10;;;6.30;72.80;;;;;;4996134;28;20020;-82
2024/01/14 14:41:53;;;;;;;0.10;0.10;;;6.20;72.60;;;;;;5000862;28;20022;-82
2024/01/14 14:44:19;;;;;;;0.10;0.10;;;6.10;72.80;;;;;;4999524;28;20034;-82
2024/01/14 14:46:44;;;;;;;0.10;0.10;;;6.00;72.80;;;;;;4989773;28;20041;-82
2024/01/14 14:49:10;;;;;;;0.10;0.10;;;5.90;72.80;;;;;;4991315;28;20373;-82
2024/01/14 14:51:37;;;;;;;0.10;0.10;;;5.70;72.90;;;;;;4997426;28;20090;-83
2024/01/14 14:54:03;;;;;;;0.10;0.10;;;5.70;73.70;;;;;;5005095;28;20022;-83
2024/01/14 14:56:30;;;;;;;0.10;0.10;;;5.50;73.80;;;;;;5005900;28;20030;-82
2024/01/14 14:58:56;;;;;;;0.20;0.20;;;5.50;74.20;;;;;;5013316;28;20022;-83
2024/01/14 15:01:22;;;;;;;0.10;0.10;;;5.50;74.60;;;;;;4999230;28;20026;-83
2024/01/14 15:03:48;;;;;;;0.10;0.10;;;5.60;74.60;;;;;;5012496;28;20453;-83
2024/01/14 15:06:13;;;;;;;0.10;0.10;;;5.50;74.90;;;;;;5004409;28;20014;-82
2024/01/14 15:08:39;;;;;;;0.10;0.10;;;5.50;75.00;;;;;;5007826;28;20026;-79
2024/01/14 15:11:05;;;;;;;0.10;0.10;;;5.50;75.30;;;;;;5012514;28;20025;-89
2024/01/14 15:13:31;;;;;;;0.10;0.10;;;5.60;75.30;;;;;;4998455;28;20490;-79
2024/01/14 15:15:58;;;;;;;0.10;0.10;;;5.60;75.20;;;;;;4995509;28;20591;-80
2024/01/14 15:18:24;;;;;;;0.20;0.20;;;5.60;75.10;;;;;;5003569;28;20508;-80
2024/01/14 15:20:50;;;;;;;0.10;0.10;;;5.60;75.00;;;;;;5015083;28;20026;-84
2024/01/14 15:23:15;;;;;;;0.10;0.10;;;5.50;74.90;;;;;;5005786;28;20042;-86
2024/01/14 15:25:41;;;;;;;0.10;0.10;;;5.50;75.20;;;;;;5013154;28;20052;-84
2024/01/14 15:28:07;;;;;;;0.10;0.10;;;5.50;75.10;;;;;;5007619;28;20025;-80
2024/01/14 15:30:33;;;;;;;0.10;0.10;;;5.40;75.30;;;;;;5005111;28;20500;-82
2024/01/14 15:32:58;;;;;;;0.10;0.10;;;5.50;75.50;;;;;;5013404;28;20570;-78
2024/01/14 15:35:24;;;;;;;0.10;0.10;;;5.50;75.60;;;;;;5006751;28;20062;-80
2024/01/14 15:37:51;;;;;;;0.10;0.10;;;5.50;75.70;;;;;;5002830;28;20750;-82
2024/01/14 15:40:16;;;;;;;0.15;0.15;;;5.50;76.00;;;;;;5012218;28;20026;-84
2024/01/14 15:42:42;;;;;;;0.10;0.10;;;5.50;75.80;;;;;;5012493;28;20152;-82
2024/01/14 15:45:08;;;;;;;0.10;0.10;;;5.40;75.70;;;;;;5014053;28;20061;-80
2024/01/14 15:47:34;;;;;;;0.10;0.10;;;5.40;75.80;;;;;;5013833;28;20120;-79
2024/01/14 15:49:59;;;;;;;0.10;0.10;;;5.40;76.10;;;;;;5013818;28;20026;-85
2024/01/14 15:52:25;;;;;;;0.10;0.10;;;5.40;76.10;;;;;;5017206;28;20028;-80
2024/01/14 15:54:50;;;;;;;0.10;0.10;;;5.40;76.20;;;;;;5011486;28;20010;-80
2024/01/14 15:57:16;;;;;;;0.10;0.10;;;5.40;76.20;;;;;;5016261;28;20034;-82
2024/01/14 15:59:42;;;;;;;0.10;0.10;;;5.30;76.00;;;;;;5010262;28;20079;-79
2024/01/14 16:02:07;;;;;;;0.13;0.13;;;5.30;76.20;;;;;;5014610;28;20083;-79
2024/01/14 16:04:33;;;;;;;0.10;0.10;;;5.20;76.30;;;;;;5012887;28;20182;-77
2024/01/14 16:07:00;;;;;;;0.10;0.10;;;5.20;76.40;;;;;;5010104;28;20037;-80
2024/01/14 16:09:27;;;;;;;0.10;0.10;;;5.20;76.40;;;;;;5014321;28;20033;-83
2024/01/14 16:11:53;;;;;;;0.10;0.10;;;5.20;76.30;;;;;;5011366;28;20014;-88
2024/01/14 16:14:18;;;;;;;0.10;0.10;;;5.20;76.50;;;;;;5011348;28;20037;-81
2024/01/14 16:16:45;;;;;;;0.10;0.10;;;5.20;76.60;;;;;;5010996;28;20033;-82
2024/01/14 16:19:11;;;;;;;0.10;0.10;;;5.10;76.90;;;;;;5011934;28;20033;-79
2024/01/14 16:21:37;;;;;;;0.20;0.20;;;5.10;77.00;;;;;;5011761;28;20038;-87
2024/01/14 16:24:03;;;;;;;0.10;0.10;;;5.20;77.10;;;;;;5024007;28;20041;-86
2024/01/14 16:26:28;;;;;;;0.10;0.10;;;5.10;77.00;;;;;;5013835;28;20049;-85
2024/01/14 16:28:54;;;;;;;0.10;0.10;;;5.10;77.20;;;;;;5006576;28;20365;-86
2024/01/14 16:31:20;;;;;;;0.10;0.10;;;5.10;77.10;;;;;;5009850;28;20061;-86
2024/01/14 16:33:46;;;;;;;0.10;0.10;;;5.10;77.20;;;;;;5008916;28;20061;-85
2024/01/14 16:36:13;;;;;;;0.10;0.10;;;5.00;77.40;;;;;;5008528;28;20065;-87
2024/01/14 16:38:38;;;;;;;0.10;0.10;;;4.90;77.70;;;;;;5011636;28;20030;-84
2024/01/14 16:41:04;;;;;;;0.10;0.10;;;4.90;77.70;;;;;;4998321;28;20072;-86
2024/01/14 16:43:30;;;;;;;0.10;0.10;;;4.90;77.70;;;;;;5013494;28;20671;-82
2024/01/14 16:45:55;;;;;;;0.20;0.20;;;4.80;77.90;;;;;;4995851;28;20022;-85
2024/01/14 16:48:21;;;;;;;0.20;0.20;;;4.80;77.90;;;;;;4993881;28;20506;-85
2024/01/14 16:50:47;;;;;;;0.20;0.20;;;4.70;77.90;;;;;;5009368;28;20030;-86
2024/01/14 16:53:18;;;;;;;0.10;0.10;;;4.70;78.00;;;;;;5006415;28;20040;-86
2024/01/14 16:55:46;;;;;;;0.10;0.10;;;4.70;78.40;;;;;;5011281;28;20025;-83
2024/01/14 16:58:12;;;;;;;0.10;0.10;;;4.70;78.60;;;;;;5014290;28;20037;-84
2024/01/14 17:00:37;;;;;;;0.10;0.10;;;4.70;78.50;;;;;;5000101;28;20026;-84
2024/01/14 17:03:03;;;;;;;0.20;0.20;;;4.70;78.40;;;;;;5004304;28;20025;-83
2024/01/14 17:05:28;;;;;;;0.20;0.20;;;4.60;78.50;;;;;;4999683;28;20065;-85
2024/01/14 17:07:55;;;;;;;0.10;0.10;;;4.60;79.00;;;;;;4998098;28;20038;-85
2024/01/14 17:10:21;;;;;;;0.10;0.10;;;4.50;78.80;;;;;;5006368;28;20022;-85
2024/01/14 17:12:47;;;;;;;0.20;0.20;;;4.40;78.90;;;;;;5004381;28;20029;-86
2024/01/14 17:15:13;;;;;;;0.20;0.20;;;4.30;79.00;;;;;;5004456;28;20755;-86
2024/01/14 17:17:38;;;;;;;0.10;0.10;;;4.30;79.00;;;;;;5004045;28;20030;-86
2024/01/14 17:20:05;;;;;;;0.13;0.13;;;4.20;79.20;;;;;;5010148;28;20121;-86
2024/01/14 17:22:30;;;;;;;0.10;0.10;;;4.20;79.40;;;;;;5005597;28;20022;-84
2024/01/14 17:24:56;;;;;;;0.20;0.20;;;4.20;79.40;;;;;;5004589;28;20036;-86
2024/01/14 17:27:22;;;;;;;0.10;0.10;;;4.20;79.70;;;;;;5001843;28;20034;-86
2024/01/14 17:29:48;;;;;;;0.13;0.13;;;4.20;79.70;;;;;;5009574;28;20516;-86
2024/01/14 17:32:14;;;;;;;0.10;0.10;;;4.20;79.70;;;;;;5001872;28;20050;-85
2024/01/14 17:34:40;;;;;;;0.10;0.10;;;4.30;79.70;;;;;;4997254;28;20041;-85
2024/01/14 17:37:07;;;;;;;0.10;0.10;;;4.30;79.90;;;;;;4998779;28;20385;-85
2024/01/14 17:39:33;;;;;;;0.10;0.10;;;4.20;79.90;;;;;;5008345;28;20026;-84
2024/01/14 17:41:58;;;;;;;0.10;0.10;;;4.20;79.90;;;;;;4993418;28;20038;-85
2024/01/14 17:44:24;;;;;;;0.20;0.20;;;4.30;79.80;;;;;;4992177;28;20085;-84
2024/01/14 17:46:50;;;;;;;0.10;0.10;;;4.40;79.60;;;;;;5000302;28;20109;-85
2024/01/14 17:49:16;;;;;;;0.10;0.10;;;4.40;79.50;;;;;;5000666;28;20498;-86
2024/01/14 17:51:42;;;;;;;0.17;0.17;;;4.30;79.40;;;;;;4997375;28;20089;-86
2024/01/14 17:54:08;;;;;;;0.10;0.10;;;4.30;79.40;;;;;;5002775;28;20037;-85
2024/01/14 17:56:35;;;;;;;0.10;0.10;;;4.20;79.60;;;;;;4998009;28;20030;-86
2024/01/14 17:59:01;;;;;;;0.10;0.10;;;4.10;79.70;;;;;;4997509;28;20159;-85
2024/01/14 18:01:27;;;;;;;0.17;0.17;;;4.10;80.00;;;;;;5007472;28;20025;-84
2024/01/14 18:03:53;;;;;;;0.10;0.10;;;4.00;79.90;;;;;;5001472;28;20025;-85
2024/01/14 18:06:18;;;;;;;0.15;0.15;;;4.00;80.10;;;;;;5003641;28;20771;-85
2024/01/14 18:08:44;;;;;;;0.10;0.10;;;4.00;80.00;;;;;;5013962;28;20036;-84
2024/01/14 18:11:10;;;;;;;0.10;0.10;;;4.00;80.00;;;;;;5012417;28;20052;-86
2024/01/14 18:13:38;;;;;;;0.10;0.10;;;4.00;79.90;;;;;;5012285;28;20057;-79
2024/01/14 18:16:17;;;;;;;0.20;0.20;;;4.00;80.10;;;;;;4995582;28;20029;-81
2024/01/14 18:18:59;;;;;;;0.10;0.10;;;4.10;80.10;;;;;;5006982;28;20149;-80
2024/01/14 18:21:34;;;;;;;0.10;0.10;;;4.10;80.10;;;;;;5013006;28;21176;-85
2024/01/14 18:24:01;;;;;;;0.10;0.10;;;4.10;80.20;;;;;;5013424;28;20408;-79
2024/01/14 18:26:32;;;;;;;0.10;0.10;;;4.20;80.10;;;;;;5008985;28;20073;-84